createdAt,value
2019-05-17T00:01:37.598Z,67.80
2019-05-17T00:04:09.697Z,67.90
2019-05-17T00:06:38.794Z,68.10
2019-05-17T00:09:07.826Z,68.10
2019-05-17T00:11:36.908Z,68.20
2019-05-17T00:14:06.425Z,68.30
2019-05-17T00:16:37.453Z,68.50
2019-05-17T00:19:07.532Z,68.60
2019-05-17T00:21:37.085Z,68.70
2019-05-17T00:24:06.677Z,68.80
2019-05-17T00:26:36.389Z,69.00
2019-05-17T00:29:07.806Z,69.20
2019-05-17T00:31:37.124Z,69.30
2019-05-17T00:34:07.306Z,69.40
2019-05-17T00:36:37.538Z,69.50
2019-05-17T00:39:08.084Z,69.60
2019-05-17T00:41:37.625Z,69.80
2019-05-17T00:44:06.793Z,69.90
2019-05-17T00:46:37.259Z,70.00
2019-05-17T00:49:06.643Z,70.10
2019-05-17T00:51:36.929Z,70.20
2019-05-17T00:54:26.908Z,70.40
2019-05-17T00:56:56.657Z,70.40
2019-05-17T00:59:26.300Z,70.60
2019-05-17T01:01:56.222Z,70.60
2019-05-17T01:04:27.605Z,70.70
2019-05-17T01:06:56.713Z,70.70
2019-05-17T01:09:27.326Z,70.90
2019-05-17T01:11:56.731Z,71.10
2019-05-17T01:14:26.578Z,71.20
2019-05-17T01:16:56.499Z,71.30
2019-05-17T01:19:27.010Z,71.40
2019-05-17T01:21:56.823Z,71.50
2019-05-17T01:24:27.410Z,71.60
2019-05-17T01:26:57.376Z,71.60
2019-05-17T01:29:26.875Z,71.60
2019-05-17T01:31:57.120Z,71.70
2019-05-17T01:34:27.214Z,71.90
2019-05-17T01:36:56.921Z,72.00
2019-05-17T01:39:26.851Z,72.00
2019-05-17T01:41:57.362Z,72.10
2019-05-17T01:44:27.229Z,72.20
2019-05-17T01:46:56.742Z,72.30
2019-05-17T01:49:27.102Z,72.40
2019-05-17T01:51:56.835Z,72.50
2019-05-17T01:54:26.866Z,72.60
2019-05-17T01:56:56.660Z,72.70
2019-05-17T01:59:26.790Z,72.80
2019-05-17T02:01:59.139Z,72.80
2019-05-17T02:04:28.185Z,73.00
2019-05-17T02:06:57.436Z,73.10
2019-05-17T02:09:37.394Z,73.20
2019-05-17T02:11:58.535Z,73.30
2019-05-17T02:14:27.629Z,73.20
2019-05-17T02:16:57.322Z,73.30
2019-05-17T02:19:26.627Z,73.40
2019-05-17T02:21:57.043Z,73.40
2019-05-17T02:24:27.485Z,73.40
2019-05-17T02:26:57.066Z,74.30
2019-05-17T02:29:26.188Z,73.30
2019-05-17T02:31:55.256Z,73.40
2019-05-17T02:34:24.281Z,73.40
2019-05-17T02:36:53.525Z,73.50
2019-05-17T02:39:23.278Z,73.50
2019-05-17T02:41:53.258Z,73.50
2019-05-17T02:44:23.590Z,73.60
2019-05-17T02:46:53.700Z,73.60
2019-05-17T02:49:23.920Z,73.60
2019-05-17T02:51:52.994Z,73.70
2019-05-17T02:54:23.517Z,73.70
2019-05-17T02:56:53.867Z,73.70
2019-05-17T02:59:23.470Z,73.80
2019-05-17T03:01:52.883Z,73.90
2019-05-17T03:04:23.677Z,73.90
2019-05-17T03:06:53.365Z,74.00
2019-05-17T03:09:23.019Z,74.20
2019-05-17T03:11:56.621Z,74.20
2019-05-17T03:14:23.125Z,74.20
2019-05-17T03:16:53.718Z,74.40
2019-05-17T03:19:24.363Z,74.40
2019-05-17T03:21:53.695Z,74.60
2019-05-17T03:24:22.900Z,74.60
2019-05-17T03:26:52.744Z,74.60
2019-05-17T03:29:22.714Z,74.70
2019-05-17T03:31:59.657Z,74.80
2019-05-17T03:34:26.615Z,74.80
2019-05-17T03:36:56.556Z,74.90
2019-05-17T03:39:25.560Z,74.90
2019-05-17T03:41:54.645Z,75.10
2019-05-17T03:44:23.611Z,75.20
2019-05-17T03:46:53.141Z,75.20
2019-05-17T03:49:22.594Z,75.30
2019-05-17T03:51:53.233Z,75.30
2019-05-17T03:54:22.854Z,75.30
2019-05-17T03:57:13.440Z,75.30
2019-05-17T03:59:43.077Z,75.40
2019-05-17T04:02:12.538Z,75.40
2019-05-17T04:04:42.881Z,75.40
2019-05-17T04:07:12.906Z,75.50
2019-05-17T04:09:43.765Z,75.50
2019-05-17T04:12:13.703Z,75.70
2019-05-17T04:14:43.139Z,76.10
2019-05-17T04:17:13.293Z,75.80
2019-05-17T04:19:42.754Z,75.80
2019-05-17T04:22:13.898Z,75.80
2019-05-17T04:24:43.807Z,75.80
2019-05-17T04:27:14.419Z,75.80
2019-05-17T04:29:43.462Z,76.00
2019-05-17T04:32:13.081Z,76.10
2019-05-17T04:34:43.726Z,76.20
2019-05-17T04:37:13.191Z,76.20
2019-05-17T04:39:43.254Z,76.30
2019-05-17T04:42:13.667Z,76.30
2019-05-17T04:44:43.278Z,76.40
2019-05-17T04:47:13.398Z,76.40
2019-05-17T04:49:43.992Z,76.50
2019-05-17T04:52:14.400Z,76.70
2019-05-17T04:54:43.440Z,76.70
2019-05-17T04:57:13.103Z,76.80
2019-05-17T04:59:43.416Z,76.80
2019-05-17T05:02:13.277Z,77.00
2019-05-17T05:04:43.560Z,76.70
2019-05-17T05:07:13.788Z,76.80
2019-05-17T05:09:43.266Z,76.80
2019-05-17T05:12:12.708Z,76.80
2019-05-17T05:14:43.125Z,76.80
2019-05-17T05:17:12.894Z,76.80
2019-05-17T05:19:42.363Z,76.80
2019-05-17T05:22:13.544Z,76.70
2019-05-17T05:24:42.412Z,76.60
2019-05-17T05:27:11.710Z,76.60
2019-05-17T05:29:41.630Z,76.50
2019-05-17T05:32:31.518Z,76.40
2019-05-17T05:35:03.107Z,76.20
2019-05-17T05:37:33.167Z,76.90
2019-05-17T05:40:02.383Z,75.90
2019-05-17T05:42:31.604Z,75.90
2019-05-17T05:45:02.944Z,75.70
2019-05-17T05:47:32.552Z,75.70
2019-05-17T05:50:02.179Z,75.50
2019-05-17T05:52:32.383Z,75.30
2019-05-17T05:55:01.654Z,75.20
2019-05-17T05:57:32.200Z,75.10
2019-05-17T06:00:02.265Z,75.10
2019-05-17T06:02:32.316Z,75.00
2019-05-17T06:05:01.963Z,74.90
2019-05-17T06:07:32.375Z,74.80
2019-05-17T06:10:02.273Z,74.70
2019-05-17T06:12:32.209Z,74.60
2019-05-17T06:15:02.797Z,74.50
2019-05-17T06:17:33.189Z,74.50
2019-05-17T06:20:02.683Z,74.40
2019-05-17T06:22:31.899Z,74.40
2019-05-17T06:25:03.850Z,74.40
2019-05-17T06:27:32.081Z,74.40
2019-05-17T06:30:01.578Z,74.30
2019-05-17T06:32:31.687Z,74.20
2019-05-17T06:35:01.843Z,74.10
2019-05-17T06:37:31.760Z,74.10
2019-05-17T06:40:02.399Z,73.90
2019-05-17T06:42:40.297Z,73.80
2019-05-17T06:45:02.409Z,73.70
2019-05-17T06:47:32.810Z,73.50
2019-05-17T06:50:03.125Z,73.40
2019-05-17T06:52:32.710Z,73.20
2019-05-17T06:55:05.740Z,73.00
2019-05-17T06:57:32.675Z,72.70
2019-05-17T07:00:03.205Z,72.50
2019-05-17T07:02:35.828Z,72.10
2019-05-17T07:05:05.918Z,71.70
2019-05-17T07:07:34.908Z,71.20
2019-05-17T07:10:03.976Z,70.70
2019-05-17T07:12:33.031Z,70.40
2019-05-17T07:15:02.263Z,69.90
2019-05-17T07:17:31.388Z,69.70
2019-05-17T07:20:00.386Z,69.40
2019-05-17T07:22:29.743Z,69.20
2019-05-17T07:24:59.691Z,69.10
2019-05-17T07:27:38.733Z,69.00
2019-05-17T07:29:59.589Z,68.90
2019-05-17T07:32:29.775Z,68.80
2019-05-17T07:35:00.096Z,68.70
2019-05-17T07:37:30.384Z,68.60
2019-05-17T07:40:04.817Z,68.50
2019-05-17T07:42:30.189Z,68.40
2019-05-17T07:45:00.488Z,68.50
2019-05-17T07:47:30.920Z,68.50
2019-05-17T07:50:01.103Z,68.30
2019-05-17T07:52:30.504Z,68.30
2019-05-17T07:55:02.439Z,68.30
2019-05-17T07:57:31.634Z,68.30
2019-05-17T08:00:20.226Z,68.30
2019-05-17T08:02:50.465Z,68.20
2019-05-17T08:05:21.410Z,68.10
2019-05-17T08:07:50.241Z,68.00
2019-05-17T08:10:20.395Z,67.80
2019-05-17T08:12:49.917Z,67.60
2019-05-17T08:15:19.791Z,67.30
2019-05-17T08:17:50.210Z,66.50
2019-05-17T08:20:20.332Z,65.80
2019-05-17T08:22:50.186Z,65.60
2019-05-17T08:25:20.029Z,65.60
2019-05-17T08:27:50.344Z,65.60
2019-05-17T08:30:20.610Z,65.50
2019-05-17T08:32:50.608Z,65.30
2019-05-17T08:35:19.897Z,65.20
2019-05-17T08:37:49.940Z,64.70
2019-05-17T08:40:20.011Z,64.10
2019-05-17T08:42:49.886Z,63.10
2019-05-17T08:45:20.567Z,62.90
2019-05-17T08:47:50.122Z,62.70
2019-05-17T08:50:20.077Z,62.60
2019-05-17T08:52:49.653Z,62.50
2019-05-17T08:55:20.475Z,62.40
2019-05-17T08:57:50.010Z,62.10
2019-05-17T09:00:20.764Z,61.20
2019-05-17T09:02:50.095Z,58.60
2019-05-17T09:05:21.226Z,55.40
2019-05-17T09:07:49.853Z,52.90
2019-05-17T09:10:20.816Z,51.00
2019-05-17T09:12:50.265Z,49.60
2019-05-17T09:15:20.403Z,48.60
2019-05-17T09:17:49.930Z,48.20
2019-05-17T09:20:21.410Z,48.70
2019-05-17T09:22:51.084Z,49.30
2019-05-17T09:25:22.035Z,49.80
2019-05-17T09:27:51.285Z,50.30
2019-05-17T09:30:20.550Z,50.80
2019-05-17T09:32:50.306Z,51.20
2019-05-17T09:35:20.817Z,51.50
2019-05-17T09:37:50.071Z,51.90
2019-05-17T09:40:20.021Z,52.20
2019-05-17T09:42:49.962Z,52.60
2019-05-17T09:45:20.174Z,53.00
2019-05-17T09:47:50.623Z,53.10
2019-05-17T09:50:20.101Z,53.30
2019-05-17T09:52:49.588Z,53.60
2019-05-17T09:55:19.598Z,53.90
2019-05-17T09:57:49.635Z,54.00
2019-05-17T10:00:20.909Z,54.10
2019-05-17T10:02:50.854Z,54.10
2019-05-17T10:05:20.329Z,54.20
2019-05-17T10:07:50.719Z,54.20
2019-05-17T10:10:20.404Z,54.90
2019-05-17T10:12:49.893Z,54.30
2019-05-17T10:15:20.773Z,54.30
2019-05-17T10:17:51.410Z,54.40
2019-05-17T10:20:20.674Z,54.40
2019-05-17T10:22:50.389Z,54.40
2019-05-17T10:25:20.135Z,54.50
2019-05-17T10:28:10.013Z,54.60
2019-05-17T10:30:40.072Z,54.80
2019-05-17T10:33:09.777Z,54.80
2019-05-17T10:35:40.630Z,54.80
2019-05-17T10:38:11.275Z,54.80
2019-05-17T10:40:40.844Z,54.70
2019-05-17T10:43:12.078Z,54.00
2019-05-17T10:45:41.141Z,54.60
2019-05-17T10:48:11.527Z,54.40
2019-05-17T10:50:40.969Z,54.40
2019-05-17T10:53:10.392Z,54.40
2019-05-17T10:55:39.859Z,54.30
2019-05-17T10:58:10.096Z,54.20
2019-05-17T11:00:41.387Z,54.10
2019-05-17T11:03:10.198Z,54.00
2019-05-17T11:05:40.223Z,53.90
2019-05-17T11:08:12.866Z,53.80
2019-05-17T11:10:41.875Z,53.70
2019-05-17T11:13:10.955Z,53.70
2019-05-17T11:15:40.005Z,53.50
2019-05-17T11:18:09.077Z,53.40
2019-05-17T11:20:38.164Z,53.30
2019-05-17T11:23:26.387Z,54.00
2019-05-17T11:25:55.425Z,53.20
2019-05-17T11:28:24.477Z,52.90
2019-05-17T11:30:53.492Z,52.80
2019-05-17T11:33:23.713Z,52.70
2019-05-17T11:35:53.096Z,52.70
2019-05-17T11:38:22.173Z,53.00
2019-05-17T11:40:51.255Z,52.60
2019-05-17T11:43:20.444Z,52.50
2019-05-17T11:45:49.547Z,52.50
2019-05-17T11:48:18.558Z,52.40
2019-05-17T11:50:47.597Z,52.50
2019-05-17T11:53:16.647Z,52.40
2019-05-17T11:55:45.662Z,52.40
2019-05-17T11:58:14.676Z,52.30
2019-05-17T12:00:43.735Z,52.40
2019-05-17T12:03:12.811Z,52.30
2019-05-17T12:05:41.865Z,52.30
2019-05-17T12:08:11.033Z,52.30
2019-05-17T12:10:40.100Z,52.40
2019-05-17T12:13:09.354Z,52.40
2019-05-17T12:15:44.802Z,52.50
2019-05-17T12:18:09.133Z,53.30
2019-05-17T12:20:38.151Z,52.70
2019-05-17T12:23:07.287Z,52.70
2019-05-17T12:25:36.314Z,52.80
2019-05-17T12:28:05.331Z,52.80
2019-05-17T12:30:34.419Z,53.00
2019-05-17T12:33:03.651Z,53.00
2019-05-17T12:35:32.797Z,53.10
2019-05-17T12:38:02.033Z,53.10
2019-05-17T12:40:31.153Z,53.10
2019-05-17T12:43:00.233Z,53.20
2019-05-17T12:45:29.319Z,53.30
2019-05-17T12:47:58.328Z,53.30
2019-05-17T12:50:27.344Z,53.30
2019-05-17T12:52:56.355Z,53.40
2019-05-17T12:55:25.435Z,53.40
2019-05-17T12:57:54.485Z,53.50
2019-05-17T13:00:23.619Z,53.50
2019-05-17T13:02:52.622Z,53.50
2019-05-17T13:05:21.686Z,53.60
2019-05-17T13:07:50.689Z,53.60
2019-05-17T13:10:19.691Z,53.50
2019-05-17T13:12:48.704Z,53.40
2019-05-17T13:15:17.696Z,53.30
2019-05-17T13:17:46.747Z,53.10
2019-05-17T13:20:15.772Z,53.10
2019-05-17T13:22:44.804Z,53.10
2019-05-17T13:25:13.882Z,53.00
2019-05-17T13:27:43.007Z,52.90
2019-05-17T13:30:12.137Z,53.00
2019-05-17T13:32:41.126Z,52.90
2019-05-17T13:35:10.299Z,52.90
2019-05-17T13:37:39.268Z,52.90
2019-05-17T13:40:09.509Z,52.90
2019-05-17T13:42:38.562Z,53.00
2019-05-17T13:45:07.523Z,53.00
2019-05-17T13:47:36.602Z,53.00
2019-05-17T13:50:07.089Z,53.10
2019-05-17T13:52:36.092Z,53.10
2019-05-17T13:55:05.511Z,53.20
2019-05-17T13:57:34.561Z,53.20
2019-05-17T14:00:03.757Z,53.30
2019-05-17T14:02:33.138Z,53.40
2019-05-17T14:05:02.202Z,53.50
2019-05-17T14:07:31.228Z,53.50
2019-05-17T14:10:00.368Z,53.50
2019-05-17T14:12:29.436Z,53.60
2019-05-17T14:14:58.495Z,53.70
2019-05-17T14:17:27.534Z,53.70
2019-05-17T14:19:56.599Z,53.80
2019-05-17T14:22:25.693Z,53.80
2019-05-17T14:24:54.723Z,53.80
2019-05-17T14:27:23.846Z,53.80
2019-05-17T14:29:53.060Z,53.90
2019-05-17T14:32:22.108Z,54.00
2019-05-17T14:34:51.135Z,54.10
2019-05-17T14:37:20.151Z,54.20
2019-05-17T14:39:49.310Z,54.20
2019-05-17T14:42:18.371Z,54.90
2019-05-17T14:44:47.459Z,54.20
2019-05-17T14:47:16.532Z,54.00
2019-05-17T14:49:45.532Z,53.90
2019-05-17T14:52:14.551Z,53.80
2019-05-17T14:54:43.753Z,53.70
2019-05-17T14:57:12.833Z,53.60
2019-05-17T14:59:41.855Z,53.60
2019-05-17T15:02:10.889Z,53.50
2019-05-17T15:04:39.897Z,53.50
2019-05-17T15:07:11.261Z,53.40
2019-05-17T15:09:39.679Z,53.40
2019-05-17T15:12:08.842Z,53.50
2019-05-17T15:14:37.899Z,53.60
2019-05-17T15:17:06.883Z,53.80
2019-05-17T15:19:36.019Z,54.10
2019-05-17T15:22:05.012Z,54.20
2019-05-17T15:24:34.060Z,54.20
2019-05-17T15:27:05.851Z,54.30
2019-05-17T15:29:33.945Z,54.30
2019-05-17T15:32:03.014Z,54.20
2019-05-17T15:34:32.057Z,54.20
2019-05-17T15:37:01.065Z,54.20
2019-05-17T15:39:30.084Z,54.20
2019-05-17T15:41:59.119Z,54.00
2019-05-17T15:44:28.178Z,54.00
2019-05-17T15:46:57.200Z,53.90
2019-05-17T15:49:26.410Z,53.90
2019-05-17T15:51:55.502Z,53.80
2019-05-17T15:54:24.605Z,53.80
2019-05-17T15:56:53.645Z,53.80
2019-05-17T15:59:22.722Z,53.90
2019-05-17T16:01:51.762Z,54.20
2019-05-17T16:04:20.772Z,54.40
2019-05-17T16:06:49.817Z,54.60
2019-05-17T16:09:18.890Z,54.70
2019-05-17T16:11:47.906Z,54.90
2019-05-17T16:14:16.853Z,54.90
2019-05-17T16:16:45.870Z,54.90
2019-05-17T16:19:14.956Z,54.90
2019-05-17T16:21:44.009Z,54.90
2019-05-17T16:24:13.095Z,54.90
2019-05-17T16:26:42.133Z,54.80
2019-05-17T16:29:11.166Z,54.80
2019-05-17T16:31:40.280Z,54.70
2019-05-17T16:34:09.362Z,54.60
2019-05-17T16:36:38.399Z,54.50
2019-05-17T16:39:08.500Z,54.40
2019-05-17T16:41:37.720Z,54.40
2019-05-17T16:44:06.798Z,54.60
2019-05-17T16:46:35.927Z,54.50
2019-05-17T16:49:04.946Z,54.40
2019-05-17T16:51:33.990Z,54.40
2019-05-17T16:54:03.026Z,54.40
2019-05-17T16:56:32.093Z,54.40
2019-05-17T16:59:01.144Z,54.40
2019-05-17T17:01:30.136Z,54.30
2019-05-17T17:03:59.139Z,54.40
2019-05-17T17:06:28.230Z,54.40
2019-05-17T17:08:57.367Z,54.50
2019-05-17T17:11:26.399Z,54.50
2019-05-17T17:13:55.413Z,54.60
2019-05-17T17:16:24.449Z,54.60
2019-05-17T17:18:53.497Z,54.70
2019-05-17T17:21:22.574Z,54.80
2019-05-17T17:23:51.575Z,54.80
2019-05-17T17:26:20.669Z,54.80
2019-05-17T17:28:49.774Z,54.90
2019-05-17T17:31:18.796Z,54.90
2019-05-17T17:33:47.845Z,54.90
2019-05-17T17:36:19.419Z,55.00
2019-05-17T17:38:47.584Z,55.10
2019-05-17T17:41:16.648Z,55.20
2019-05-17T17:43:57.534Z,55.30
2019-05-17T17:46:16.539Z,55.50
2019-05-17T17:48:45.993Z,55.50
2019-05-17T17:51:15.091Z,55.50
2019-05-17T17:53:44.108Z,55.60
2019-05-17T17:56:13.813Z,55.70
2019-05-17T17:58:42.882Z,55.90
2019-05-17T18:01:11.998Z,56.00
2019-05-17T18:03:41.087Z,56.10
2019-05-17T18:06:10.209Z,56.10
2019-05-17T18:08:39.305Z,56.30
2019-05-17T18:11:09.930Z,56.40
2019-05-17T18:13:39.045Z,56.50
2019-05-17T18:16:08.214Z,56.60
2019-05-17T18:18:37.300Z,56.60
2019-05-17T18:21:06.453Z,56.80
2019-05-17T18:23:35.417Z,56.80
2019-05-17T18:26:04.557Z,57.00
2019-05-17T18:28:33.682Z,57.10
2019-05-17T18:31:02.779Z,57.20
2019-05-17T18:33:31.845Z,57.30
2019-05-17T18:36:00.943Z,57.40
2019-05-17T18:38:49.883Z,57.40
2019-05-17T18:41:18.927Z,57.50
2019-05-17T18:43:48.037Z,57.60
2019-05-17T18:46:17.045Z,57.80
2019-05-17T18:48:47.731Z,57.90
2019-05-17T18:51:16.735Z,58.00
2019-05-17T18:53:45.783Z,58.00
2019-05-17T18:56:14.882Z,58.00
2019-05-17T18:58:43.929Z,58.00
2019-05-17T19:01:13.002Z,58.10
2019-05-17T19:03:42.146Z,58.30
2019-05-17T19:06:11.286Z,58.30
2019-05-17T19:08:40.341Z,58.50
2019-05-17T19:11:09.798Z,58.60
2019-05-17T19:13:38.849Z,58.70
2019-05-17T19:16:07.993Z,58.80
2019-05-17T19:18:37.163Z,58.80
2019-05-17T19:21:06.262Z,59.00
2019-05-17T19:23:35.346Z,59.10
2019-05-17T19:26:04.341Z,59.20
2019-05-17T19:28:33.438Z,59.20
2019-05-17T19:31:02.450Z,59.40
2019-05-17T19:33:31.463Z,59.50
2019-05-17T19:36:00.581Z,59.60
2019-05-17T19:38:29.637Z,59.70
2019-05-17T19:40:58.799Z,59.80
2019-05-17T19:43:27.877Z,59.80
2019-05-17T19:45:56.939Z,59.90
2019-05-17T19:48:26.066Z,60.20
2019-05-17T19:50:55.171Z,60.40
2019-05-17T19:53:24.228Z,60.50
2019-05-17T19:55:53.244Z,60.60
2019-05-17T19:58:22.248Z,60.70
2019-05-17T20:00:51.267Z,60.80
2019-05-17T20:03:20.335Z,60.80
2019-05-17T20:05:49.419Z,61.00
2019-05-17T20:08:18.487Z,61.10
2019-05-17T20:10:47.606Z,61.20
2019-05-17T20:13:16.655Z,61.30
2019-05-17T20:15:45.733Z,61.50
2019-05-17T20:18:14.808Z,61.50
2019-05-17T20:20:43.846Z,61.60
2019-05-17T20:23:12.828Z,61.90
2019-05-17T20:25:41.902Z,62.00
2019-05-17T20:28:10.869Z,62.20
2019-05-17T20:30:45.678Z,62.30
2019-05-17T20:33:14.716Z,62.50
2019-05-17T20:35:43.721Z,62.70
2019-05-17T20:38:31.906Z,63.10
2019-05-17T20:41:00.912Z,63.20
2019-05-17T20:43:30.220Z,63.50
2019-05-17T20:45:59.251Z,63.70
2019-05-17T20:48:29.526Z,63.90
2019-05-17T20:50:58.586Z,64.10
2019-05-17T20:53:27.663Z,64.40
2019-05-17T20:55:56.652Z,64.60
2019-05-17T20:58:25.693Z,64.70
2019-05-17T21:00:54.846Z,65.00
2019-05-17T21:03:23.884Z,65.30
2019-05-17T21:05:52.870Z,66.20
2019-05-17T21:08:21.938Z,65.50
2019-05-17T21:10:51.068Z,65.80
2019-05-17T21:13:20.192Z,66.00
2019-05-17T21:15:49.352Z,66.10
2019-05-17T21:18:18.394Z,66.20
2019-05-17T21:20:47.422Z,66.40
2019-05-17T21:23:16.555Z,66.60
2019-05-17T21:25:45.717Z,66.80
2019-05-17T21:28:14.786Z,67.00
2019-05-17T21:30:43.970Z,67.20
2019-05-17T21:33:13.048Z,67.40
2019-05-17T21:35:42.922Z,67.50
2019-05-17T21:38:12.003Z,67.50
2019-05-17T21:40:41.079Z,67.70
2019-05-17T21:43:11.652Z,68.00
2019-05-17T21:45:40.725Z,68.10
2019-05-17T21:48:09.796Z,68.20
2019-05-17T21:50:38.824Z,68.40
2019-05-17T21:53:07.972Z,68.60
2019-05-17T21:55:37.023Z,68.70
2019-05-17T21:58:06.139Z,68.80
2019-05-17T22:01:12.304Z,68.90
2019-05-17T22:03:41.427Z,69.20
2019-05-17T22:06:13.547Z,69.10
2019-05-17T22:08:42.625Z,69.30
2019-05-17T22:11:11.689Z,69.40
2019-05-17T22:13:40.843Z,69.70
2019-05-17T22:16:18.978Z,69.70
2019-05-17T22:18:40.642Z,69.90
2019-05-17T22:21:09.787Z,70.00
2019-05-17T22:23:38.900Z,70.10
2019-05-17T22:26:07.955Z,70.20
2019-05-17T22:28:37.031Z,70.30
2019-05-17T22:31:06.195Z,70.40
2019-05-17T22:33:35.333Z,70.70
2019-05-17T22:36:04.438Z,70.80
2019-05-17T22:38:33.452Z,70.80
2019-05-17T22:41:02.431Z,70.80
2019-05-17T22:43:31.533Z,71.00
2019-05-17T22:46:00.612Z,71.10
2019-05-17T22:48:29.683Z,71.30
2019-05-17T22:50:58.754Z,71.50
2019-05-17T22:53:27.821Z,71.60
2019-05-17T22:55:56.913Z,71.70
2019-05-17T22:58:25.962Z,71.70
2019-05-17T23:00:55.033Z,71.80
2019-05-17T23:03:23.993Z,71.90
2019-05-17T23:05:53.002Z,72.10
2019-05-17T23:08:22.022Z,72.20
2019-05-17T23:10:51.084Z,72.30
2019-05-17T23:13:20.161Z,72.40
2019-05-17T23:16:02.026Z,72.50
2019-05-17T23:18:32.387Z,72.80
2019-05-17T23:21:01.488Z,72.80
2019-05-17T23:23:30.655Z,73.00
2019-05-17T23:25:59.765Z,73.10
2019-05-17T23:28:28.785Z,73.20
2019-05-17T23:30:57.882Z,73.50
2019-05-17T23:33:26.974Z,73.60
2019-05-17T23:35:56.007Z,73.70
2019-05-17T23:38:25.065Z,73.80
2019-05-17T23:40:54.100Z,73.90
2019-05-17T23:43:23.242Z,74.00
2019-05-17T23:45:52.297Z,74.20
2019-05-17T23:48:21.394Z,74.30
2019-05-17T23:50:50.466Z,74.40
2019-05-17T23:53:19.491Z,74.50
2019-05-17T23:55:48.494Z,74.60
2019-05-17T23:58:17.599Z,75.50
